Airport View

Enter AWOS ICAO identifier for current METAR.

ex. KFNL

KTKI 191853Z 17010KT 10SM SCT033 BKN042 32/25 A2977 RMK AO2 SLP072 T03170250

19 Jun 2019 19:54

Frequency: 119.925

Phone: 972-548-8525

Other Area AWOS: KF46 - KADS - KDAL - KHQZ

TAF KDAL 191729Z 1918/2018 19015KT P6SM SCT027 SCT250 TEMPO 1918/1919 BKN027 FM192300 21016KT P6SM VCTS SCT050CB BKN120 TEMPO 1923/2003 27025G35KT +TSRA BKN040CB FM200400 18009KT P6SM SCT120 BKN250 FM200800 14008KT P6SM SCT025 BKN035 FM201300 14008KT P6SM BKN025 FM201500 18015KT P6SM SCT250